METAR Data
IDs: Format: Raw Decoded Include TAF

Data at: 1328 UTC 10 Jul 2020

METAR for:KTLH (Tallahassee Intl, FL, US)
Text:KTLH 101253Z 31007KT 10SM FEW031 FEW250 28/25 A2997 RMK AO2 SLP146 T02830250
Temperature: 28.3°C ( 83°F)
Dewpoint: 25.0°C ( 77°F) [RH = 82%]
Pressure (altimeter):29.97 inches Hg (1015.0 mb) [Sea level pressure: 1014.6 mb]
Winds:from the NW (310 degrees) at 8 MPH (7 knots; 3.6 m/s)
Visibility:10 or more sm (16+ km)
Ceiling:at least 12,000 feet AGL
Clouds: few clouds at 3100 feet AGL, few clouds at 25000 feet AGL